Terminal Aerodrome Forecast
Issued by NWS Jackson, MS

Current Version | Previous Version | Text Only | Print | Product List | Glossary On
Versions: 1 2 3 4 5 6 7 8 9 10 11 12 13
000
FTUS44 KJAN 192000 AAA
TAFMEI
TAF AMD
KMEI 192026Z 1920/2018 04007KT P6SM -RA BKN030 OVC100
     FM200100 06006KT P6SM -RA BKN025
     FM200600 04005KT 3SM BR OVC007
     FM201500 02007KT P6SM OVC015=

USA.gov is the U.S. government's official web portal to all federal, state and local government web resources and services.